Luka, Czech Republic

10:34 PM CET on March 02, 2015 (GMT +0100)
Bouzov | Change Station
CLOSE
Current Station
Personal Weather Station
Location: Bouzov, OLOMOUC REGION
Elevation: 1224 ft
Nearby Weather Stations

Elev 1224 ft 49.71 °N, 16.92 °E | Updated 4 minutes ago

Clear
Clear
35.1 °F
Feels Like 35 °F
N
1.6
Wind Variable Wind from SE
Gusts 2.2 mph

Today
High -- | Low -- °F
--% Chance of Precip.
Yesterday
High -- | Low -- °F
Precip. -- in
6:33 AM 5:35 PM
Waxing Gibbous, 93% visible
Pressure 29.86 in
Visibility -9999.0 miles
Clouds
Windchill 35 °F
Dew Point 30 °F
Humidity 74%
Rainfall 0.13 in
Snow Depth Not available.
UV Not available.
Pollen Not available.
Air Quality Not available.
Flu Activity Not available.
METAR LKTB 022130Z 12003KT 090V160 CAVOK 02/M02 Q1011 NOSIG

More Conditions Fewer Conditions

Pressure 29.86 in
Visibility -9999.0 miles
Clouds
Windchill 35 °F
Dew Point 30 °F
Humidity 74%
Rainfall 0.13 in
Snow Depth Not available.
UV Not available.
Pollen Not available.
Air Quality Not available.
Flu Activity Not available.
METAR LKTB 022130Z 12003KT 090V160 CAVOK 02/M02 Q1011 NOSIG

More Conditions Fewer Conditions

10-Day Weather Forecast

Almanac

Astronomy

Mar. 02, 2015 Rise Set
Actual Time
Civil Twilight
Nautical Twilight
Astronomical Twilight
Moon
Length of Visible Light
Length of Day
Tomorrow will be .
, % of the Moon is Illuminated

Today's Extremes

Country Highs Country Lows

Community

WunderPhotos

Upload Photos

1,801,960 photos uploaded!

WunderBlogs® & News

Nearby

Air Quality

  Air Quality AQ Index Pollutant
Not available.

Snow Depth

Station Depth Elevation

Earthquake Activity

City Distance Mag. Time & Date
Minimum magnitude displayed is 2.5.

Coastal Water Temperatures

Place Temperature

Nearby Weather Stations